Time;durP1;ratioP1;P1;durP2;ratioP2;P2;SDS_P1;SDS_P2;PMS_P1;PMS_P2;Temp;Humidity;BMP_temperature;BMP_pressure;BME280_temperature;BME280_humidity;BME280_pressure;Samples;Min_cycle;Max_cycle;Signal;HPM_P1;HPM_P2
2021/05/31 00:01:00;;;;;;;5.00;3.25;;;7.20;77.00;;;;;;5073729;28;20028;-81
2021/05/31 00:03:26;;;;;;;4.13;3.22;;;7.10;78.00;;;;;;5055540;28;20031;-81
2021/05/31 00:05:52;;;;;;;2.92;2.42;;;7.00;76.20;;;;;;5079839;28;20038;-80
2021/05/31 00:08:18;;;;;;;4.78;2.75;;;6.70;74.00;;;;;;5056272;28;20032;-80
2021/05/31 00:10:44;;;;;;;4.10;3.10;;;6.50;74.50;;;;;;5048961;28;20021;-80
2021/05/31 00:13:10;;;;;;;5.38;3.38;;;6.50;76.90;;;;;;5076907;28;20020;-81
2021/05/31 00:15:36;;;;;;;5.68;3.70;;;6.50;78.00;;;;;;5066361;28;20035;-80
2021/05/31 00:18:01;;;;;;;10.27;3.63;;;6.50;77.00;;;;;;5060212;28;20050;-80
2021/05/31 00:20:27;;;;;;;5.07;3.28;;;6.60;77.70;;;;;;5074809;28;20028;-80
2021/05/31 00:22:53;;;;;;;4.70;3.30;;;6.80;77.40;;;;;;5067884;28;20031;-81
2021/05/31 00:25:19;;;;;;;4.90;3.47;;;6.70;78.00;;;;;;5073435;28;20032;-81
2021/05/31 00:27:45;;;;;;;9.35;4.07;;;6.70;77.60;;;;;;5072658;28;20025;-81
2021/05/31 00:30:12;;;;;;;4.90;2.90;;;6.70;78.00;;;;;;5051076;28;20165;-81
2021/05/31 00:32:38;;;;;;;4.57;3.45;;;6.80;79.00;;;;;;5070224;28;20062;-81
2021/05/31 00:35:06;;;;;;;4.80;3.25;;;6.90;78.80;;;;;;5074659;28;20025;-80
2021/05/31 00:37:32;;;;;;;5.60;3.10;;;7.00;78.90;;;;;;5054388;28;20024;-80
2021/05/31 00:39:57;;;;;;;3.28;2.60;;;7.10;77.70;;;;;;5054835;28;20411;-81
2021/05/31 00:42:23;;;;;;;4.97;3.20;;;6.90;71.70;;;;;;5076695;28;20394;-80
2021/05/31 00:44:49;;;;;;;2.97;2.20;;;6.60;71.40;;;;;;5058075;28;20028;-81
2021/05/31 00:47:16;;;;;;;3.28;2.47;;;6.50;72.30;;;;;;5071572;28;20694;-80
2021/05/31 00:49:42;;;;;;;4.35;3.00;;;6.30;73.50;;;;;;5070980;28;20422;-80
2021/05/31 00:52:08;;;;;;;4.10;3.05;;;6.30;74.90;;;;;;5056341;28;20043;-80
2021/05/31 00:54:35;;;;;;;3.47;2.30;;;6.40;75.20;;;;;;5072950;28;20028;-79
2021/05/31 00:57:01;;;;;;;4.68;2.88;;;6.50;75.30;;;;;;5056722;28;20397;-80
2021/05/31 00:59:27;;;;;;;4.57;3.15;;;6.50;75.40;;;;;;5072387;28;20032;-80
2021/05/31 01:01:53;;;;;;;3.47;2.53;;;6.50;75.60;;;;;;5051533;28;20105;-80
2021/05/31 01:04:19;;;;;;;5.45;3.17;;;6.50;75.40;;;;;;5075149;28;20074;-80
2021/05/31 01:07:08;;;;;;;4.10;2.53;;;6.30;76.60;;;;;;5075018;28;20024;-80
2021/05/31 01:09:55;;;;;;;6.95;2.90;;;5.90;78.20;;;;;;5065186;28;20540;-80
2021/05/31 01:12:43;;;;;;;5.03;2.92;;;5.90;78.30;;;;;;5075578;28;20024;-80
2021/05/31 01:15:20;;;;;;;4.03;2.60;;;5.70;82.40;;;;;;5053495;28;20028;-80
2021/05/31 01:18:25;;;;;;;7.07;3.33;;;5.40;83.30;;;;;;5046651;28;20032;-79
2021/05/31 01:21:28;;;;;;;3.58;2.30;;;5.80;81.20;;;;;;5052834;28;20036;-79
2021/05/31 01:24:02;;;;;;;3.55;2.88;;;6.00;80.40;;;;;;5056575;28;20320;-80
2021/05/31 01:26:40;;;;;;;4.60;2.72;;;6.00;80.30;;;;;;5074778;28;20367;-80
2021/05/31 01:29:08;;;;;;;3.53;2.72;;;5.90;79.70;;;;;;5080444;28;20055;-80
2021/05/31 01:31:37;;;;;;;4.27;3.00;;;5.80;80.60;;;;;;5071499;28;20025;-79
2021/05/31 01:34:09;;;;;;;4.97;3.03;;;5.80;80.50;;;;;;5073691;28;20032;-79
2021/05/31 01:36:41;;;;;;;4.57;3.10;;;5.70;78.30;;;;;;5082855;28;20021;-80
2021/05/31 01:39:07;;;;;;;4.22;2.67;;;5.70;80.50;;;;;;5051168;28;20029;-80
2021/05/31 01:41:34;;;;;;;5.10;2.58;;;5.70;80.40;;;;;;5054352;28;20028;-79
2021/05/31 01:44:00;;;;;;;4.60;3.30;;;5.80;79.30;;;;;;5053021;28;20386;-80
2021/05/31 01:46:26;;;;;;;4.47;2.88;;;6.00;79.00;;;;;;5085544;28;20020;-80
2021/05/31 01:48:54;;;;;;;4.13;2.95;;;6.00;79.00;;;;;;5074144;28;20364;-80
2021/05/31 01:51:21;;;;;;;4.70;3.10;;;6.00;79.40;;;;;;5052379;28;20024;-80
2021/05/31 01:53:47;;;;;;;4.20;2.97;;;6.00;79.10;;;;;;5055130;28;20093;-81
2021/05/31 01:56:15;;;;;;;4.70;2.90;;;6.00;80.60;;;;;;5071355;28;20422;-80
2021/05/31 01:58:42;;;;;;;4.55;2.97;;;5.90;80.70;;;;;;5047597;28;20161;-80
2021/05/31 02:01:09;;;;;;;2.90;2.50;;;5.80;81.60;;;;;;5055650;28;20491;-80
2021/05/31 02:03:36;;;;;;;4.22;2.80;;;5.80;81.30;;;;;;5075068;28;20029;-80
2021/05/31 02:06:02;;;;;;;6.43;2.92;;;5.80;82.30;;;;;;5047161;28;20061;-80
2021/05/31 02:08:27;;;;;;;4.40;3.22;;;5.80;82.60;;;;;;5073396;28;20047;-80
2021/05/31 02:10:54;;;;;;;4.07;3.38;;;5.80;81.50;;;;;;5070594;28;20052;-81
2021/05/31 02:13:26;;;;;;;4.45;2.75;;;5.70;82.60;;;;;;5074459;28;20103;-80
2021/05/31 02:16:06;;;;;;;4.53;2.78;;;5.60;84.00;;;;;;5052043;28;20081;-80
2021/05/31 02:18:44;;;;;;;4.47;3.08;;;5.70;82.70;;;;;;5069327;28;20136;-80
2021/05/31 02:21:12;;;;;;;4.43;3.20;;;5.80;80.90;;;;;;5062519;28;20032;-80
2021/05/31 02:23:41;;;;;;;5.43;2.75;;;5.80;79.40;;;;;;5072061;28;20028;-80
2021/05/31 02:26:09;;;;;;;3.92;3.13;;;5.90;79.20;;;;;;5075523;28;20055;-79
2021/05/31 02:28:36;;;;;;;4.05;2.67;;;5.90;79.40;;;;;;5049592;28;20162;-80
2021/05/31 02:31:07;;;;;;;4.43;2.95;;;6.00;79.00;;;;;;5065583;28;20040;-79
2021/05/31 02:33:33;;;;;;;3.13;2.58;;;6.00;78.50;;;;;;5068139;28;20069;-80
2021/05/31 02:36:00;;;;;;;3.22;2.53;;;5.90;77.90;;;;;;5050951;28;20107;-80
2021/05/31 02:38:25;;;;;;;3.17;2.25;;;5.90;77.60;;;;;;5068992;28;20026;-80
2021/05/31 02:40:51;;;;;;;3.85;3.30;;;5.90;78.90;;;;;;5054351;28;20024;-80
2021/05/31 02:43:17;;;;;;;6.03;3.30;;;5.80;80.40;;;;;;5075357;28;20549;-79
2021/05/31 02:45:42;;;;;;;6.15;2.95;;;5.70;80.90;;;;;;5068610;28;20035;-80
2021/05/31 02:48:08;;;;;;;4.82;3.05;;;5.70;80.90;;;;;;5055944;28;20028;-79
2021/05/31 02:50:35;;;;;;;6.88;3.00;;;5.50;83.40;;;;;;5079457;28;20020;-80
2021/05/31 02:53:01;;;;;;;5.05;2.80;;;5.50;82.90;;;;;;5075824;28;20025;-79
2021/05/31 02:55:29;;;;;;;5.55;2.72;;;5.60;82.20;;;;;;5057605;28;20027;-81
2021/05/31 02:57:56;;;;;;;3.72;2.65;;;5.60;81.70;;;;;;5075102;28;20029;-80
2021/05/31 03:00:24;;;;;;;4.30;2.95;;;5.70;81.30;;;;;;5056568;28;20032;-80
2021/05/31 03:02:50;;;;;;;3.93;2.93;;;5.70;81.30;;;;;;5060118;28;20017;-80
2021/05/31 03:05:18;;;;;;;5.10;3.00;;;5.70;80.80;;;;;;5078147;28;20413;-80
2021/05/31 03:07:45;;;;;;;4.13;2.92;;;5.70;80.70;;;;;;5070934;28;20468;-80
2021/05/31 03:10:12;;;;;;;6.30;3.30;;;5.80;80.20;;;;;;5072976;28;20633;-80
2021/05/31 03:12:38;;;;;;;4.05;2.80;;;5.80;80.30;;;;;;5066504;28;20039;-80
2021/05/31 03:15:09;;;;;;;6.75;2.33;;;5.80;79.40;;;;;;5069257;28;20025;-79
2021/05/31 03:17:35;;;;;;;4.25;2.67;;;5.80;77.30;;;;;;5051493;28;20059;-80
2021/05/31 03:20:01;;;;;;;3.88;2.38;;;5.70;76.50;;;;;;5071849;28;20032;-79
2021/05/31 03:22:27;;;;;;;3.10;2.72;;;5.70;76.00;;;;;;5072667;28;20564;-79
2021/05/31 03:24:52;;;;;;;4.05;2.10;;;5.60;76.00;;;;;;5063774;28;20060;-79
2021/05/31 03:27:18;;;;;;;4.18;2.53;;;5.70;76.30;;;;;;5071778;28;20028;-79
2021/05/31 03:29:44;;;;;;;3.38;2.55;;;5.60;76.20;;;;;;5067205;28;20070;-80
2021/05/31 03:32:10;;;;;;;6.47;2.72;;;5.60;76.50;;;;;;5070476;28;20119;-80
2021/05/31 03:34:36;;;;;;;4.60;2.80;;;5.50;76.10;;;;;;5055697;28;20574;-79
2021/05/31 03:37:02;;;;;;;7.88;3.30;;;5.40;76.30;;;;;;5071927;28;20055;-79
2021/05/31 03:39:27;;;;;;;4.22;2.83;;;5.30;80.00;;;;;;5067487;28;20024;-80
2021/05/31 03:41:53;;;;;;;5.32;2.60;;;5.10;81.30;;;;;;5062586;28;20165;-80
2021/05/31 03:44:19;;;;;;;3.95;2.63;;;4.80;83.40;;;;;;5050819;28;22156;-80
2021/05/31 03:46:45;;;;;;;4.05;3.00;;;4.80;85.50;;;;;;5071970;28;20103;-80
2021/05/31 03:49:10;;;;;;;4.57;2.92;;;5.00;85.70;;;;;;5057767;28;20109;-80
2021/05/31 03:51:36;;;;;;;4.90;2.67;;;4.80;86.10;;;;;;5058644;28;20602;-79
2021/05/31 03:54:02;;;;;;;3.75;2.63;;;4.80;86.10;;;;;;5069169;28;20021;-79
2021/05/31 03:56:27;;;;;;;3.00;2.42;;;4.90;85.80;;;;;;5064281;28;20024;-80
2021/05/31 03:58:54;;;;;;;3.45;2.78;;;5.00;85.40;;;;;;5067078;28;20025;-79
2021/05/31 04:01:20;;;;;;;3.17;2.75;;;5.00;86.50;;;;;;5062465;28;20067;-79
2021/05/31 04:03:46;;;;;;;6.43;2.80;;;4.90;85.40;;;;;;5051965;28;20033;-80
2021/05/31 04:11:37;;;;;;;7.40;2.95;;;4.80;90.00;;;;;;5072483;28;20047;-79
2021/05/31 04:14:17;;;;;;;6.95;2.65;;;5.00;88.80;;;;;;5052476;28;20450;-80
2021/05/31 04:16:45;;;;;;;3.47;2.58;;;5.20;85.30;;;;;;5047799;28;20434;-81
2021/05/31 04:19:12;;;;;;;4.53;3.08;;;5.30;84.50;;;;;;5052203;28;20394;-80
2021/05/31 04:21:39;;;;;;;3.78;2.63;;;5.40;83.60;;;;;;5060970;28;20509;-79
2021/05/31 04:24:06;;;;;;;3.53;2.50;;;5.50;84.10;;;;;;5077900;28;20472;-79
2021/05/31 04:26:33;;;;;;;5.47;2.92;;;5.70;83.60;;;;;;5073847;28;20024;-80
2021/05/31 04:28:59;;;;;;;4.85;3.70;;;5.90;85.10;;;;;;5082057;28;20383;-80
2021/05/31 04:31:25;;;;;;;6.65;3.95;;;6.10;85.00;;;;;;5073483;28;20074;-80
2021/05/31 04:33:51;;;;;;;6.22;3.20;;;6.30;84.60;;;;;;5074927;28;20573;-80
2021/05/31 04:36:18;;;;;;;5.72;3.53;;;6.40;84.10;;;;;;5057737;28;20036;-79
2021/05/31 04:38:43;;;;;;;8.73;3.55;;;6.40;84.80;;;;;;5050544;28;20400;-81
2021/05/31 04:41:09;;;;;;;6.30;2.90;;;6.50;84.20;;;;;;5063535;28;20035;-80
2021/05/31 04:43:35;;;;;;;4.18;3.20;;;6.50;83.10;;;;;;5067394;28;20037;-80
2021/05/31 04:46:02;;;;;;;4.70;3.58;;;6.50;82.80;;;;;;5074052;28;20040;-80
2021/05/31 04:48:27;;;;;;;4.22;3.20;;;6.70;82.30;;;;;;5078335;28;20016;-81
2021/05/31 04:50:56;;;;;;;7.97;3.50;;;6.80;83.30;;;;;;5072751;28;20069;-81
2021/05/31 04:53:26;;;;;;;;;;;7.00;83.50;;;;;;5073015;28;20089;-81
2021/05/31 04:55:56;;;;;;;4.35;3.30;;;7.10;83.70;;;;;;5071548;28;19962;-80
2021/05/31 04:58:23;;;;;;;6.95;3.38;;;7.30;83.00;;;;;;5065717;28;20093;-80
2021/05/31 05:00:49;;;;;;;6.40;3.88;;;7.40;82.90;;;;;;5067813;28;20033;-80
2021/05/31 05:03:15;;;;;;;5.05;3.40;;;7.50;82.60;;;;;;5082078;28;20036;-80
2021/05/31 05:05:40;;;;;;;3.40;3.10;;;7.60;83.40;;;;;;5053450;28;20033;-80
2021/05/31 05:08:06;;;;;;;5.43;3.60;;;7.70;84.00;;;;;;5070884;28;20048;-81
2021/05/31 05:10:33;;;;;;;5.35;3.78;;;7.80;85.40;;;;;;5055368;28;20085;-80
2021/05/31 05:12:58;;;;;;;5.10;3.67;;;8.00;84.50;;;;;;5077183;28;20390;-80
2021/05/31 05:15:25;;;;;;;4.95;4.30;;;8.10;83.90;;;;;;5054821;28;20115;-80
2021/05/31 05:17:52;;;;;;;6.65;3.90;;;8.20;83.80;;;;;;5072587;28;20043;-81
2021/05/31 05:20:20;;;;;;;6.43;4.00;;;8.30;83.40;;;;;;5075880;28;20025;-81
2021/05/31 05:22:46;;;;;;;5.57;4.07;;;8.50;84.50;;;;;;5055927;28;20578;-81
2021/05/31 05:25:13;;;;;;;5.93;4.25;;;8.50;82.20;;;;;;5055040;28;20154;-80
2021/05/31 05:27:42;;;;;;;8.15;4.05;;;8.50;82.70;;;;;;5057903;28;20077;-80
2021/05/31 05:30:09;;;;;;;5.72;3.85;;;8.60;81.90;;;;;;5068748;28;20029;-80
2021/05/31 05:32:36;;;;;;;8.65;4.38;;;8.80;82.20;;;;;;5048969;28;20037;-81
2021/05/31 05:35:19;;;;;;;10.43;4.68;;;8.80;82.40;;;;;;5071535;28;20502;-80
2021/05/31 05:48:18;;;;;;;5.78;3.88;;;9.40;82.30;;;;;;5074364;28;20025;-81
2021/05/31 05:50:44;;;;;;;4.50;4.03;;;9.50;81.10;;;;;;5053711;28;20044;-82
2021/05/31 05:53:09;;;;;;;6.43;4.38;;;9.60;78.10;;;;;;5078630;28;20047;-80
2021/05/31 05:55:35;;;;;;;4.85;3.63;;;9.70;78.60;;;;;;5077371;28;20107;-80
2021/05/31 05:58:01;;;;;;;7.13;5.20;;;9.90;77.70;;;;;;5070921;28;20036;-81
2021/05/31 06:00:29;;;;;;;7.88;4.40;;;10.00;78.50;;;;;;5051304;28;20563;-81
2021/05/31 06:02:55;;;;;;;6.13;4.75;;;10.10;77.20;;;;;;5072529;28;20028;-79
2021/05/31 06:05:22;;;;;;;5.88;4.32;;;10.20;76.50;;;;;;5072943;28;20036;-80
2021/05/31 06:07:48;;;;;;;6.53;4.45;;;10.30;76.80;;;;;;5057611;28;20020;-82
2021/05/31 06:10:15;;;;;;;5.85;4.05;;;10.40;74.10;;;;;;5073161;28;20384;-81
2021/05/31 06:12:41;;;;;;;6.82;4.28;;;10.50;75.50;;;;;;5065857;28;20107;-82
2021/05/31 06:15:08;;;;;;;8.00;4.72;;;10.60;75.50;;;;;;5057688;28;20147;-81
2021/05/31 06:17:34;;;;;;;6.43;4.70;;;10.70;75.00;;;;;;5069273;28;20099;-82
2021/05/31 06:20:01;;;;;;;7.68;4.03;;;10.80;72.80;;;;;;5070655;28;20451;-83
2021/05/31 06:22:38;;;;;;;9.25;4.40;;;10.80;71.70;;;;;;5075051;28;20060;-82
2021/05/31 06:25:05;;;;;;;5.55;4.32;;;10.90;71.50;;;;;;5054720;28;20047;-80
2021/05/31 06:27:31;;;;;;;6.10;4.33;;;11.00;72.30;;;;;;5058096;28;20036;-81
2021/05/31 06:29:57;;;;;;;6.70;4.22;;;11.10;73.80;;;;;;5078895;28;20766;-81
2021/05/31 06:32:23;;;;;;;5.18;4.00;;;11.20;71.90;;;;;;5071177;28;20037;-81
2021/05/31 06:34:48;;;;;;;5.45;4.22;;;11.20;71.10;;;;;;5072893;28;20021;-81
2021/05/31 06:37:14;;;;;;;8.57;4.05;;;11.30;72.70;;;;;;5072199;28;20036;-82
2021/05/31 06:39:40;;;;;;;6.03;4.43;;;11.40;71.80;;;;;;5057910;28;20028;-82
2021/05/31 06:42:06;;;;;;;7.88;4.63;;;11.60;71.10;;;;;;5062164;28;20044;-81
2021/05/31 06:44:32;;;;;;;6.40;4.00;;;11.60;72.50;;;;;;5055968;28;20024;-83
2021/05/31 06:46:57;;;;;;;6.72;3.88;;;11.70;69.40;;;;;;5069910;28;20021;-81
2021/05/31 06:49:23;;;;;;;6.72;3.90;;;11.80;68.70;;;;;;5079633;28;20100;-82
2021/05/31 06:51:49;;;;;;;4.50;3.63;;;11.80;68.10;;;;;;5068560;28;20657;-81
2021/05/31 06:54:15;;;;;;;6.88;4.10;;;11.90;66.20;;;;;;5081673;28;20044;-81
2021/05/31 06:56:41;;;;;;;6.95;3.63;;;11.90;65.90;;;;;;5066020;28;20116;-82
2021/05/31 06:59:07;;;;;;;4.40;4.00;;;12.00;66.60;;;;;;5050201;28;20048;-80
2021/05/31 07:01:32;;;;;;;4.72;3.83;;;12.10;67.30;;;;;;5047039;28;20037;-80
2021/05/31 07:03:58;;;;;;;4.60;3.55;;;12.20;64.40;;;;;;5056234;28;20525;-81
2021/05/31 07:06:24;;;;;;;4.72;3.78;;;12.10;64.10;;;;;;5037957;28;20025;-80
2021/05/31 07:08:50;;;;;;;5.85;4.13;;;12.20;65.50;;;;;;5038524;28;20032;-81
2021/05/31 07:11:18;;;;;;;6.40;4.13;;;12.30;64.50;;;;;;5055739;28;20025;-80
2021/05/31 07:13:46;;;;;;;6.40;3.85;;;12.40;64.40;;;;;;5056415;28;20025;-80
2021/05/31 07:16:15;;;;;;;6.07;3.55;;;12.50;63.30;;;;;;5038422;28;20083;-79
2021/05/31 07:18:41;;;;;;;5.78;3.90;;;12.60;65.10;;;;;;5056107;28;20033;-80
2021/05/31 07:21:07;;;;;;;5.05;3.85;;;12.70;65.00;;;;;;5055512;28;20556;-81
2021/05/31 07:23:36;;;;;;;4.20;3.72;;;12.90;65.30;;;;;;5037337;28;20028;-81
2021/05/31 07:26:03;;;;;;;4.93;3.75;;;13.00;65.20;;;;;;5055076;28;20017;-82
2021/05/31 07:28:28;;;;;;;5.05;4.05;;;13.10;63.50;;;;;;5055203;28;20078;-81
2021/05/31 07:30:54;;;;;;;4.03;3.33;;;13.10;62.00;;;;;;5036491;28;20422;-83
2021/05/31 07:33:20;;;;;;;5.35;3.58;;;13.10;62.40;;;;;;5054946;28;20537;-81
2021/05/31 07:35:45;;;;;;;5.80;3.83;;;13.20;63.60;;;;;;5055122;28;20107;-81
2021/05/31 07:38:11;;;;;;;4.18;3.22;;;13.30;62.10;;;;;;5037499;28;20032;-81
2021/05/31 07:40:37;;;;;;;4.18;3.35;;;13.30;59.60;;;;;;5055183;28;20053;-82
2021/05/31 07:43:03;;;;;;;4.85;3.55;;;13.30;58.30;;;;;;5037039;28;20083;-81
2021/05/31 07:45:29;;;;;;;4.32;2.67;;;13.30;59.50;;;;;;5037381;28;20032;-81
2021/05/31 07:47:54;;;;;;;3.17;2.60;;;13.50;58.10;;;;;;5036748;28;20505;-80
2021/05/31 07:50:20;;;;;;;5.07;3.40;;;13.50;59.10;;;;;;5037301;28;20040;-81
2021/05/31 07:52:47;;;;;;;7.07;3.72;;;13.60;58.30;;;;;;5037060;28;20032;-81
2021/05/31 07:55:15;;;;;;;3.60;3.22;;;13.60;57.80;;;;;;5037009;28;20025;-81
2021/05/31 07:57:41;;;;;;;;;;;13.70;60.00;;;;;;5037095;28;20128;-82
2021/05/31 08:00:12;;;;;;;3.90;2.95;;;13.70;57.00;;;;;;5037424;28;19967;-81
2021/05/31 08:02:38;;;;;;;2.70;2.50;;;13.80;59.70;;;;;;5054043;28;20036;-81
2021/05/31 08:05:04;;;;;;;2.95;2.35;;;13.90;55.90;;;;;;5036891;28;20391;-82
2021/05/31 08:07:30;;;;;;;4.75;2.60;;;14.00;57.00;;;;;;5036736;28;20029;-82
2021/05/31 08:09:56;;;;;;;3.42;2.13;;;14.20;58.30;;;;;;5054746;28;20035;-80
2021/05/31 08:12:22;;;;;;;4.68;2.83;;;14.20;53.50;;;;;;5036537;28;20395;-81
2021/05/31 08:14:47;;;;;;;3.60;3.05;;;14.20;54.10;;;;;;5037122;28;20032;-82
2021/05/31 08:17:13;;;;;;;3.88;2.88;;;14.10;55.30;;;;;;5046481;28;20044;-81
2021/05/31 08:19:39;;;;;;;3.20;2.90;;;14.30;55.80;;;;;;5073412;28;20037;-81
2021/05/31 08:22:06;;;;;;;3.55;2.40;;;14.20;54.30;;;;;;5062719;28;20554;-80
2021/05/31 08:24:32;;;;;;;3.08;2.78;;;14.40;55.80;;;;;;5078914;28;20029;-80
2021/05/31 08:26:58;;;;;;;3.70;2.67;;;14.50;54.30;;;;;;5064399;28;20105;-81
2021/05/31 08:29:24;;;;;;;3.33;2.72;;;14.50;51.00;;;;;;5074145;28;20029;-82
2021/05/31 08:31:50;;;;;;;2.95;2.42;;;14.50;53.70;;;;;;5073531;28;20033;-82
2021/05/31 08:34:17;;;;;;;3.53;2.97;;;14.60;53.30;;;;;;5070220;28;20093;-81
2021/05/31 08:36:44;;;;;;;2.67;2.30;;;14.70;54.50;;;;;;5088684;28;20020;-81
2021/05/31 08:39:11;;;;;;;3.03;2.72;;;14.80;52.80;;;;;;5076644;28;20122;-83
2021/05/31 08:41:38;;;;;;;2.80;2.50;;;14.70;52.50;;;;;;5073402;28;20016;-82
2021/05/31 08:44:05;;;;;;;2.92;2.05;;;14.90;52.90;;;;;;5074471;28;20033;-81
2021/05/31 08:46:30;;;;;;;3.55;2.47;;;14.90;54.10;;;;;;5081382;28;20075;-82
2021/05/31 08:48:58;;;;;;;3.53;2.70;;;14.90;54.00;;;;;;5054937;28;20017;-82
2021/05/31 08:51:24;;;;;;;6.30;2.90;;;15.00;53.10;;;;;;5069567;28;20033;-83
2021/05/31 08:53:50;;;;;;;3.78;2.70;;;15.00;53.30;;;;;;5055763;28;20023;-82
2021/05/31 08:56:17;;;;;;;2.20;2.00;;;14.90;54.50;;;;;;5056128;28;20414;-82
2021/05/31 08:58:43;;;;;;;3.83;2.72;;;15.00;51.60;;;;;;5094097;28;20185;-81
2021/05/31 09:01:08;;;;;;;2.92;2.58;;;15.00;53.20;;;;;;5073504;28;20056;-82
2021/05/31 09:03:34;;;;;;;3.05;2.67;;;15.10;53.00;;;;;;5072729;28;20025;-81
2021/05/31 09:06:03;;;;;;;3.10;2.20;;;15.30;50.80;;;;;;5071054;28;20028;-82
2021/05/31 09:08:28;;;;;;;2.00;1.85;;;15.40;50.50;;;;;;5076177;28;20398;-82
2021/05/31 09:11:02;;;;;;;2.70;2.00;;;15.60;51.40;;;;;;5071943;28;20024;-82
2021/05/31 09:13:37;;;;;;;2.55;2.17;;;15.90;49.00;;;;;;5075894;28;20049;-82
2021/05/31 09:16:03;;;;;;;4.15;2.05;;;15.80;44.60;;;;;;5076745;28;20024;-83
2021/05/31 09:18:28;;;;;;;2.65;2.00;;;15.50;45.80;;;;;;5064196;28;20506;-82
2021/05/31 09:20:54;;;;;;;2.50;1.95;;;15.60;45.20;;;;;;5071624;28;20478;-82
2021/05/31 09:23:20;;;;;;;2.78;2.30;;;15.50;46.10;;;;;;5097480;28;20494;-81
2021/05/31 09:25:45;;;;;;;2.63;1.92;;;15.60;46.60;;;;;;5098102;28;20513;-83
2021/05/31 09:28:12;;;;;;;3.55;1.95;;;15.70;47.50;;;;;;5079746;28;20031;-82
2021/05/31 09:30:39;;;;;;;2.25;2.05;;;15.80;46.50;;;;;;5097432;28;20039;-83
2021/05/31 09:33:14;;;;;;;2.15;1.70;;;16.00;45.10;;;;;;5070988;28;20028;-83
2021/05/31 09:35:42;;;;;;;2.40;2.20;;;15.90;46.30;;;;;;5062900;28;20012;-83
2021/05/31 09:38:09;;;;;;;2.55;1.73;;;15.90;43.60;;;;;;5059320;28;20733;-83
2021/05/31 09:40:36;;;;;;;2.85;2.40;;;15.90;45.80;;;;;;5078023;28;20009;-83
2021/05/31 09:43:04;;;;;;;3.75;2.00;;;15.90;47.80;;;;;;5053720;28;20085;-82
2021/05/31 09:45:30;;;;;;;;;;;16.00;48.00;;;;;;5086444;28;20494;-82
2021/05/31 09:48:00;;;;;;;2.55;2.10;;;16.00;48.10;;;;;;5077229;28;19932;-82
2021/05/31 09:50:28;;;;;;;2.30;2.10;;;16.30;45.70;;;;;;5066918;28;20059;-83
2021/05/31 09:53:11;;;;;;;2.45;2.22;;;16.30;46.40;;;;;;5077394;28;20059;-82
2021/05/31 09:55:39;;;;;;;4.65;2.00;;;16.10;43.60;;;;;;5077580;28;20024;-82
2021/05/31 09:58:10;;;;;;;2.38;1.92;;;16.00;42.10;;;;;;5059172;28;20028;-82
2021/05/31 10:00:37;;;;;;;3.92;1.83;;;16.00;41.60;;;;;;5076211;28;20052;-83
2021/05/31 10:06:05;;;;;;;4.05;1.90;;;16.10;43.30;;;;;;5076414;28;20123;-82
2021/05/31 10:11:01;;;;;;;1.90;1.80;;;16.40;46.60;;;;;;5069637;28;20051;-82
2021/05/31 10:13:29;;;;;;;2.63;1.90;;;16.40;46.00;;;;;;5074276;28;20162;-82
2021/05/31 10:15:56;;;;;;;2.58;2.00;;;16.30;44.80;;;;;;5074675;28;20155;-83
2021/05/31 10:18:25;;;;;;;2.95;2.33;;;16.40;44.40;;;;;;5075928;28;20474;-83
2021/05/31 10:20:52;;;;;;;3.47;2.17;;;16.40;42.50;;;;;;5058126;28;20029;-82
2021/05/31 10:23:18;;;;;;;3.25;1.92;;;16.30;41.70;;;;;;5076311;28;20035;-81
2021/05/31 10:25:51;;;;;;;3.30;2.00;;;16.40;44.10;;;;;;5073950;28;20024;-82
2021/05/31 10:28:21;;;;;;;2.65;2.13;;;16.40;42.50;;;;;;5076164;28;20081;-81
2021/05/31 10:30:53;;;;;;;2.65;1.90;;;16.40;43.30;;;;;;5076323;28;20052;-82
2021/05/31 10:33:24;;;;;;;2.45;1.70;;;16.50;43.40;;;;;;5075871;28;20028;-82
2021/05/31 10:35:52;;;;;;;2.00;1.70;;;16.50;41.70;;;;;;5059317;28;20032;-82
2021/05/31 10:38:22;;;;;;;2.07;1.87;;;16.60;42.60;;;;;;5075805;28;20039;-81
2021/05/31 10:40:52;;;;;;;3.92;1.88;;;16.70;42.30;;;;;;5058536;28;20275;-81
2021/05/31 10:43:20;;;;;;;3.63;1.77;;;16.70;41.90;;;;;;5058014;28;20028;-82
2021/05/31 10:45:46;;;;;;;;;;;16.70;42.00;;;;;;5051614;28;20028;-83
2021/05/31 10:48:20;;;;;;;2.97;2.38;;;17.00;43.70;;;;;;5077873;28;19908;-82
2021/05/31 10:50:53;;;;;;;4.75;2.50;;;17.00;44.70;;;;;;5080497;28;20058;-82
2021/05/31 10:53:19;;;;;;;2.80;2.17;;;16.80;45.80;;;;;;5087702;28;20044;-82
2021/05/31 10:55:59;;;;;;;2.75;2.10;;;16.80;44.60;;;;;;5072648;28;20025;-82
2021/05/31 10:58:47;;;;;;;2.67;2.38;;;16.90;48.00;;;;;;5060563;28;20028;-83
2021/05/31 11:01:37;;;;;;;10.70;5.07;;;16.80;45.90;;;;;;5078804;28;20111;-82
2021/05/31 11:04:19;;;;;;;2.60;2.13;;;16.90;47.20;;;;;;5077996;28;20031;-83
2021/05/31 11:06:46;;;;;;;3.47;2.20;;;16.80;46.40;;;;;;5051678;28;20036;-83
2021/05/31 11:09:28;;;;;;;2.90;2.10;;;17.00;45.00;;;;;;5058230;28;20048;-82
2021/05/31 11:11:55;;;;;;;2.30;2.03;;;17.00;47.60;;;;;;5051535;28;20020;-83
2021/05/31 11:14:31;;;;;;;2.10;1.90;;;17.00;47.10;;;;;;5071052;28;20573;-82
2021/05/31 11:17:03;;;;;;;2.30;2.10;;;16.90;48.10;;;;;;5057935;28;20099;-84
2021/05/31 11:19:36;;;;;;;2.20;2.00;;;17.00;49.20;;;;;;5056689;28;20040;-83
2021/05/31 11:22:16;;;;;;;6.40;2.53;;;17.00;49.50;;;;;;5053913;28;20035;-83
2021/05/31 11:24:49;;;;;;;2.40;2.20;;;17.00;48.10;;;;;;5054867;28;20585;-82
2021/05/31 11:27:14;;;;;;;3.78;2.20;;;16.90;48.30;;;;;;5048484;28;20040;-82
2021/05/31 11:29:40;;;;;;;3.47;2.60;;;16.90;45.70;;;;;;5076000;28;20028;-82
2021/05/31 11:32:06;;;;;;;2.60;2.30;;;16.90;47.00;;;;;;5057626;28;20119;-83
2021/05/31 11:34:33;;;;;;;2.83;2.20;;;16.90;46.10;;;;;;5074197;28;20028;-83
2021/05/31 11:36:59;;;;;;;2.40;2.00;;;17.00;48.00;;;;;;5067453;28;20044;-82
2021/05/31 11:39:32;;;;;;;2.80;2.35;;;17.00;47.20;;;;;;5083248;28;20017;-83
2021/05/31 11:41:57;;;;;;;2.67;2.47;;;16.90;44.80;;;;;;5057450;28;20036;-83
2021/05/31 11:44:29;;;;;;;3.00;2.20;;;17.00;50.00;;;;;;5057336;28;20016;-81
2021/05/31 11:46:56;;;;;;;2.90;2.00;;;16.90;45.10;;;;;;5056143;28;20025;-83
2021/05/31 11:49:24;;;;;;;3.20;2.17;;;16.90;48.80;;;;;;5080268;28;20027;-83
2021/05/31 11:51:56;;;;;;;;;;;17.10;49.10;;;;;;5054639;28;20110;-82
2021/05/31 11:54:23;;;;;;;3.42;2.25;;;17.10;48.70;;;;;;5057945;28;20049;-82
2021/05/31 11:56:49;;;;;;;2.92;2.33;;;17.10;47.60;;;;;;5054433;28;20020;-83
2021/05/31 11:59:18;;;;;;;5.20;2.80;;;17.20;51.00;;;;;;5057696;28;20039;-81
2021/05/31 12:01:54;;;;;;;2.60;2.40;;;17.20;48.00;;;;;;5055774;28;20101;-83
2021/05/31 12:04:23;;;;;;;3.25;2.08;;;17.50;47.80;;;;;;5073101;28;20032;-83
2021/05/31 12:07:04;;;;;;;2.53;2.00;;;17.60;48.60;;;;;;5074383;28;20021;-82
2021/05/31 12:09:30;;;;;;;2.28;2.08;;;17.70;46.30;;;;;;5075784;28;20117;-83
2021/05/31 12:11:56;;;;;;;6.70;2.50;;;17.60;46.30;;;;;;5068470;28;20475;-82
2021/05/31 12:14:25;;;;;;;2.75;2.22;;;17.60;48.30;;;;;;5053158;28;20054;-83
2021/05/31 12:17:01;;;;;;;2.40;2.13;;;17.60;43.70;;;;;;5049513;28;20025;-84
2021/05/31 12:19:28;;;;;;;2.20;2.00;;;17.50;45.90;;;;;;5071676;28;20115;-83
2021/05/31 12:21:58;;;;;;;4.75;2.30;;;17.60;45.20;;;;;;5049285;28;20053;-83
2021/05/31 12:24:33;;;;;;;2.50;2.25;;;17.50;45.90;;;;;;5076865;28;20033;-83
2021/05/31 12:27:00;;;;;;;6.63;2.22;;;17.60;44.90;;;;;;5063783;28;20120;-83
2021/05/31 12:29:40;;;;;;;3.40;2.33;;;17.70;44.50;;;;;;5051384;28;20031;-83
2021/05/31 12:32:08;;;;;;;2.90;2.33;;;17.40;45.00;;;;;;5072361;28;20048;-83
2021/05/31 12:34:35;;;;;;;2.50;2.30;;;17.40;43.80;;;;;;5061025;28;20029;-83
2021/05/31 12:37:03;;;;;;;2.75;2.50;;;17.60;47.80;;;;;;5075217;28;20017;-82
2021/05/31 12:39:29;;;;;;;2.55;2.20;;;17.60;43.70;;;;;;5085239;28;20016;-82
2021/05/31 12:41:55;;;;;;;2.55;2.35;;;17.60;47.20;;;;;;5073035;28;20033;-82
2021/05/31 12:44:26;;;;;;;2.92;2.13;;;17.60;46.90;;;;;;5071501;28;20111;-82
2021/05/31 12:46:52;;;;;;;2.42;2.13;;;17.50;46.50;;;;;;5046790;28;20025;-82
2021/05/31 12:49:28;;;;;;;3.53;2.28;;;17.40;45.00;;;;;;5055908;28;20674;-82
2021/05/31 12:51:56;;;;;;;4.80;2.25;;;17.50;45.40;;;;;;5054266;28;20024;-81
2021/05/31 12:54:22;;;;;;;3.17;1.92;;;17.50;45.30;;;;;;5060182;28;20376;-82
2021/05/31 12:56:48;;;;;;;2.03;1.85;;;17.60;45.20;;;;;;5052846;28;20120;-83
2021/05/31 12:59:14;;;;;;;2.53;2.10;;;17.60;46.30;;;;;;5061503;28;20036;-83
2021/05/31 13:01:45;;;;;;;4.57;2.50;;;17.60;45.20;;;;;;5076978;28;20039;-83
2021/05/31 13:04:11;;;;;;;3.78;2.60;;;17.60;45.10;;;;;;5057795;28;20029;-83
2021/05/31 13:06:39;;;;;;;6.28;2.55;;;17.60;44.80;;;;;;5060839;28;20050;-82
2021/05/31 13:09:06;;;;;;;2.67;2.47;;;17.50;43.60;;;;;;5059852;28;20042;-83
2021/05/31 13:11:43;;;;;;;2.53;2.33;;;17.50;44.40;;;;;;5076109;28;20021;-84
2021/05/31 13:14:21;;;;;;;2.97;2.17;;;17.40;46.00;;;;;;5067569;28;20063;-83
2021/05/31 13:16:58;;;;;;;3.05;2.08;;;17.60;45.60;;;;;;5072148;28;20031;-81
2021/05/31 13:19:25;;;;;;;3.30;2.30;;;17.60;47.60;;;;;;5050126;28;20028;-82